sensor_id;sensor_type;location;lat;lon;timestamp;temperature;humidity
29007;DHT22;16104;48.642;9.008;2024-01-15T00:04:19;1.10;61.90
29007;DHT22;16104;48.642;9.008;2024-01-15T00:09:15;1.10;61.80
29007;DHT22;16104;48.642;9.008;2024-01-15T00:14:11;1.10;61.80
29007;DHT22;16104;48.642;9.008;2024-01-15T00:19:07;1.10;61.80
29007;DHT22;16104;48.642;9.008;2024-01-15T00:24:02;1.10;61.80
29007;DHT22;16104;48.642;9.008;2024-01-15T00:28:58;1.10;61.80
29007;DHT22;16104;48.642;9.008;2024-01-15T00:33:53;1.20;62.00
29007;DHT22;16104;48.642;9.008;2024-01-15T00:38:49;1.20;62.00
29007;DHT22;16104;48.642;9.008;2024-01-15T00:43:45;1.20;62.00
29007;DHT22;16104;48.642;9.008;2024-01-15T00:48:41;1.20;62.10
29007;DHT22;16104;48.642;9.008;2024-01-15T00:53:36;1.20;62.20
29007;DHT22;16104;48.642;9.008;2024-01-15T00:58:32;1.20;62.20
29007;DHT22;16104;48.642;9.008;2024-01-15T05:04:30;1.80;64.50
29007;DHT22;16104;48.642;9.008;2024-01-15T05:09:25;1.80;64.40
29007;DHT22;16104;48.642;9.008;2024-01-15T05:14:21;1.80;64.40
29007;DHT22;16104;48.642;9.008;2024-01-15T05:19:18;1.90;64.50
29007;DHT22;16104;48.642;9.008;2024-01-15T05:24:13;1.90;64.40
29007;DHT22;16104;48.642;9.008;2024-01-15T05:29:09;1.90;64.50
29007;DHT22;16104;48.642;9.008;2024-01-15T05:34:04;1.90;64.50
29007;DHT22;16104;48.642;9.008;2024-01-15T05:39:00;1.90;64.50
29007;DHT22;16104;48.642;9.008;2024-01-15T05:43:55;1.90;64.60
29007;DHT22;16104;48.642;9.008;2024-01-15T05:48:51;2.00;64.60
29007;DHT22;16104;48.642;9.008;2024-01-15T05:53:46;2.00;64.60
29007;DHT22;16104;48.642;9.008;2024-01-15T05:58:42;2.00;64.70
29007;DHT22;16104;48.642;9.008;2024-01-15T06:03:37;2.00;64.70
29007;DHT22;16104;48.642;9.008;2024-01-15T06:08:32;2.00;65.00
29007;DHT22;16104;48.642;9.008;2024-01-15T06:13:28;1.90;65.10
29007;DHT22;16104;48.642;9.008;2024-01-15T06:18:23;1.90;65.20
29007;DHT22;16104;48.642;9.008;2024-01-15T06:23:19;1.90;65.40
29007;DHT22;16104;48.642;9.008;2024-01-15T06:28:14;1.90;65.60
29007;DHT22;16104;48.642;9.008;2024-01-15T06:33:10;1.80;65.70
29007;DHT22;16104;48.642;9.008;2024-01-15T06:38:05;1.80;65.80
29007;DHT22;16104;48.642;9.008;2024-01-15T06:43:01;1.80;65.80
29007;DHT22;16104;48.642;9.008;2024-01-15T06:47:56;1.80;65.70
29007;DHT22;16104;48.642;9.008;2024-01-15T06:52:52;1.80;65.70
29007;DHT22;16104;48.642;9.008;2024-01-15T06:57:47;1.80;65.70
29007;DHT22;16104;48.642;9.008;2024-01-15T07:02:43;1.80;65.60
29007;DHT22;16104;48.642;9.008;2024-01-15T07:07:38;1.80;65.50
29007;DHT22;16104;48.642;9.008;2024-01-15T07:12:34;1.80;65.30
29007;DHT22;16104;48.642;9.008;2024-01-15T07:17:29;1.80;65.20
29007;DHT22;16104;48.642;9.008;2024-01-15T07:22:26;1.80;65.00
29007;DHT22;16104;48.642;9.008;2024-01-15T07:27:21;1.90;65.00
29007;DHT22;16104;48.642;9.008;2024-01-15T07:32:17;1.90;64.80
29007;DHT22;16104;48.642;9.008;2024-01-15T07:37:13;1.90;64.70
29007;DHT22;16104;48.642;9.008;2024-01-15T07:42:08;1.90;64.40
29007;DHT22;16104;48.642;9.008;2024-01-15T07:47:04;2.00;64.30
29007;DHT22;16104;48.642;9.008;2024-01-15T07:51:59;2.00;64.10
29007;DHT22;16104;48.642;9.008;2024-01-15T07:56:56;2.00;64.00
29007;DHT22;16104;48.642;9.008;2024-01-15T08:01:52;2.00;63.80
29007;DHT22;16104;48.642;9.008;2024-01-15T08:06:48;2.10;63.70
29007;DHT22;16104;48.642;9.008;2024-01-15T08:11:44;2.10;63.60
29007;DHT22;16104;48.642;9.008;2024-01-15T08:16:39;2.20;63.60
29007;DHT22;16104;48.642;9.008;2024-01-15T08:21:35;2.20;63.50
29007;DHT22;16104;48.642;9.008;2024-01-15T08:26:31;2.20;63.10
29007;DHT22;16104;48.642;9.008;2024-01-15T08:31:27;2.30;63.00
29007;DHT22;16104;48.642;9.008;2024-01-15T08:36:23;2.30;63.50
29007;DHT22;16104;48.642;9.008;2024-01-15T08:41:19;2.40;62.40
29007;DHT22;16104;48.642;9.008;2024-01-15T08:46:15;2.40;62.20
29007;DHT22;16104;48.642;9.008;2024-01-15T08:51:10;2.50;61.90
29007;DHT22;16104;48.642;9.008;2024-01-15T08:56:06;2.50;61.50
29007;DHT22;16104;48.642;9.008;2024-01-15T09:01:01;2.60;61.40
29007;DHT22;16104;48.642;9.008;2024-01-15T09:05:57;2.70;61.40
29007;DHT22;16104;48.642;9.008;2024-01-15T09:10:53;2.70;61.20
29007;DHT22;16104;48.642;9.008;2024-01-15T09:15:48;2.80;60.80
29007;DHT22;16104;48.642;9.008;2024-01-15T09:20:44;2.80;60.70
29007;DHT22;16104;48.642;9.008;2024-01-15T09:25:39;2.90;60.80
29007;DHT22;16104;48.642;9.008;2024-01-15T09:30:35;2.90;60.80
29007;DHT22;16104;48.642;9.008;2024-01-15T09:35:31;3.00;60.70
29007;DHT22;16104;48.642;9.008;2024-01-15T09:40:31;3.00;60.60
29007;DHT22;16104;48.642;9.008;2024-01-15T09:45:28;3.00;60.20
29007;DHT22;16104;48.642;9.008;2024-01-15T09:50:24;3.10;61.10
29007;DHT22;16104;48.642;9.008;2024-01-15T09:55:19;3.20;60.40
29007;DHT22;16104;48.642;9.008;2024-01-15T10:00:19;3.20;60.10
29007;DHT22;16104;48.642;9.008;2024-01-15T10:05:15;3.30;60.00
29007;DHT22;16104;48.642;9.008;2024-01-15T10:10:11;3.30;60.00
29007;DHT22;16104;48.642;9.008;2024-01-15T10:15:09;3.40;60.00
29007;DHT22;16104;48.642;9.008;2024-01-15T10:20:10;3.40;59.90
29007;DHT22;16104;48.642;9.008;2024-01-15T10:25:06;3.40;59.60
29007;DHT22;16104;48.642;9.008;2024-01-15T10:30:06;3.50;59.60
29007;DHT22;16104;48.642;9.008;2024-01-15T10:35:02;3.50;59.60
29007;DHT22;16104;48.642;9.008;2024-01-15T10:40:02;3.50;60.30
29007;DHT22;16104;48.642;9.008;2024-01-15T10:45:00;3.60;59.70
29007;DHT22;16104;48.642;9.008;2024-01-15T10:49:56;3.60;59.70
29007;DHT22;16104;48.642;9.008;2024-01-15T10:54:53;3.70;59.80
29007;DHT22;16104;48.642;9.008;2024-01-15T10:59:48;3.70;59.80
29007;DHT22;16104;48.642;9.008;2024-01-15T11:04:43;3.70;59.90
29007;DHT22;16104;48.642;9.008;2024-01-15T11:09:39;3.70;60.00
29007;DHT22;16104;48.642;9.008;2024-01-15T11:19:38;3.70;59.80
29007;DHT22;16104;48.642;9.008;2024-01-15T11:24:36;3.70;60.00
29007;DHT22;16104;48.642;9.008;2024-01-15T11:29:36;3.70;60.00
29007;DHT22;16104;48.642;9.008;2024-01-15T11:34:57;3.70;60.00
29007;DHT22;16104;48.642;9.008;2024-01-15T11:40:02;3.70;60.20
29007;DHT22;16104;48.642;9.008;2024-01-15T11:44:59;3.70;60.60
29007;DHT22;16104;48.642;9.008;2024-01-15T11:50:00;3.70;60.90
29007;DHT22;16104;48.642;9.008;2024-01-15T11:55:22;3.70;61.20
29007;DHT22;16104;48.642;9.008;2024-01-15T12:00:18;3.70;62.10
29007;DHT22;16104;48.642;9.008;2024-01-15T12:05:16;3.70;62.50
29007;DHT22;16104;48.642;9.008;2024-01-15T12:10:13;3.70;63.20
29007;DHT22;16104;48.642;9.008;2024-01-15T12:15:08;3.70;63.60
29007;DHT22;16104;48.642;9.008;2024-01-15T12:20:07;3.70;64.00
29007;DHT22;16104;48.642;9.008;2024-01-15T12:25:03;3.60;64.50
29007;DHT22;16104;48.642;9.008;2024-01-15T12:29:58;3.60;64.70
29007;DHT22;16104;48.642;9.008;2024-01-15T12:34:54;3.60;64.60
29007;DHT22;16104;48.642;9.008;2024-01-15T12:39:49;3.60;64.80
29007;DHT22;16104;48.642;9.008;2024-01-15T12:44:47;3.60;65.00
29007;DHT22;16104;48.642;9.008;2024-01-15T12:49:43;3.60;65.00
29007;DHT22;16104;48.642;9.008;2024-01-15T12:54:41;3.60;65.20
29007;DHT22;16104;48.642;9.008;2024-01-15T12:59:37;3.60;65.70
29007;DHT22;16104;48.642;9.008;2024-01-15T13:04:32;3.50;65.40
29007;DHT22;16104;48.642;9.008;2024-01-15T13:09:28;3.50;65.50
29007;DHT22;16104;48.642;9.008;2024-01-15T13:14:25;3.50;65.80
29007;DHT22;16104;48.642;9.008;2024-01-15T13:19:20;3.50;66.00
29007;DHT22;16104;48.642;9.008;2024-01-15T13:24:19;3.50;66.20
29007;DHT22;16104;48.642;9.008;2024-01-15T13:29:15;3.50;66.50
29007;DHT22;16104;48.642;9.008;2024-01-15T13:34:10;3.40;66.40
29007;DHT22;16104;48.642;9.008;2024-01-15T13:39:06;3.40;66.70
29007;DHT22;16104;48.642;9.008;2024-01-15T13:44:04;3.40;66.70
29007;DHT22;16104;48.642;9.008;2024-01-15T13:48:59;3.40;66.90
29007;DHT22;16104;48.642;9.008;2024-01-15T13:53:55;3.40;67.00
29007;DHT22;16104;48.642;9.008;2024-01-15T13:58:50;3.40;67.10
29007;DHT22;16104;48.642;9.008;2024-01-15T14:03:47;3.50;67.40
29007;DHT22;16104;48.642;9.008;2024-01-15T14:08:42;3.40;67.40
29007;DHT22;16104;48.642;9.008;2024-01-15T14:13:38;3.40;67.30
29007;DHT22;16104;48.642;9.008;2024-01-15T14:18:33;3.40;67.40
29007;DHT22;16104;48.642;9.008;2024-01-15T14:23:29;3.40;67.40
29007;DHT22;16104;48.642;9.008;2024-01-15T14:28:24;3.40;67.40
29007;DHT22;16104;48.642;9.008;2024-01-15T14:33:20;3.40;67.40
29007;DHT22;16104;48.642;9.008;2024-01-15T14:38:15;3.40;67.60
29007;DHT22;16104;48.642;9.008;2024-01-15T14:43:11;3.40;67.60
29007;DHT22;16104;48.642;9.008;2024-01-15T14:48:06;3.40;67.60
29007;DHT22;16104;48.642;9.008;2024-01-15T14:53:02;3.40;68.10
29007;DHT22;16104;48.642;9.008;2024-01-15T14:57:57;3.40;67.20
29007;DHT22;16104;48.642;9.008;2024-01-15T15:02:53;3.40;66.70
29007;DHT22;16104;48.642;9.008;2024-01-15T15:07:48;3.40;66.40
29007;DHT22;16104;48.642;9.008;2024-01-15T15:12:44;3.30;66.10
29007;DHT22;16104;48.642;9.008;2024-01-15T15:17:39;3.30;66.20
29007;DHT22;16104;48.642;9.008;2024-01-15T15:22:35;3.20;66.20
29007;DHT22;16104;48.642;9.008;2024-01-15T15:27:30;3.20;66.10
29007;DHT22;16104;48.642;9.008;2024-01-15T15:32:26;3.20;65.60
29007;DHT22;16104;48.642;9.008;2024-01-15T15:37:21;3.20;65.10
29007;DHT22;16104;48.642;9.008;2024-01-15T15:42:17;3.10;64.60
29007;DHT22;16104;48.642;9.008;2024-01-15T15:47:13;3.00;64.30
29007;DHT22;16104;48.642;9.008;2024-01-15T15:52:11;3.00;64.10
29007;DHT22;16104;48.642;9.008;2024-01-15T15:57:07;2.90;63.90
29007;DHT22;16104;48.642;9.008;2024-01-15T16:02:03;2.90;63.70
29007;DHT22;16104;48.642;9.008;2024-01-15T16:06:58;2.90;63.70
29007;DHT22;16104;48.642;9.008;2024-01-15T16:11:54;2.80;63.70
29007;DHT22;16104;48.642;9.008;2024-01-15T16:16:49;2.80;63.60
29007;DHT22;16104;48.642;9.008;2024-01-15T16:21:46;2.80;63.50
29007;DHT22;16104;48.642;9.008;2024-01-15T16:26:41;2.70;63.30
29007;DHT22;16104;48.642;9.008;2024-01-15T16:31:39;2.70;63.20
29007;DHT22;16104;48.642;9.008;2024-01-15T16:36:35;2.60;63.00
29007;DHT22;16104;48.642;9.008;2024-01-15T16:41:31;2.60;63.10
29007;DHT22;16104;48.642;9.008;2024-01-15T16:46:26;2.60;63.20
29007;DHT22;16104;48.642;9.008;2024-01-15T16:51:22;2.50;63.20
29007;DHT22;16104;48.642;9.008;2024-01-15T16:56:17;2.50;63.20
29007;DHT22;16104;48.642;9.008;2024-01-15T17:01:13;2.50;63.00
29007;DHT22;16104;48.642;9.008;2024-01-15T17:06:08;2.50;63.00
29007;DHT22;16104;48.642;9.008;2024-01-15T17:11:04;2.50;63.10
29007;DHT22;16104;48.642;9.008;2024-01-15T17:15:59;2.50;63.30
29007;DHT22;16104;48.642;9.008;2024-01-15T17:20:55;2.50;63.50
29007;DHT22;16104;48.642;9.008;2024-01-15T17:25:51;2.50;63.60
29007;DHT22;16104;48.642;9.008;2024-01-15T17:30:46;2.40;63.50
29007;DHT22;16104;48.642;9.008;2024-01-15T17:35:52;2.40;63.60
29007;DHT22;16104;48.642;9.008;2024-01-15T17:40:48;2.40;63.50
29007;DHT22;16104;48.642;9.008;2024-01-15T17:45:43;2.40;63.50
29007;DHT22;16104;48.642;9.008;2024-01-15T17:50:39;2.40;63.60
29007;DHT22;16104;48.642;9.008;2024-01-15T17:55:34;2.40;63.80
29007;DHT22;16104;48.642;9.008;2024-01-15T18:00:30;2.40;63.80
29007;DHT22;16104;48.642;9.008;2024-01-15T18:05:25;2.40;63.70
29007;DHT22;16104;48.642;9.008;2024-01-15T18:10:21;2.40;63.60
29007;DHT22;16104;48.642;9.008;2024-01-15T18:15:17;2.40;63.40
29007;DHT22;16104;48.642;9.008;2024-01-15T18:20:12;2.30;63.30
29007;DHT22;16104;48.642;9.008;2024-01-15T18:25:08;2.30;63.30
29007;DHT22;16104;48.642;9.008;2024-01-15T18:30:04;2.30;63.20
29007;DHT22;16104;48.642;9.008;2024-01-15T18:35:00;2.30;63.10
29007;DHT22;16104;48.642;9.008;2024-01-15T18:39:56;2.20;62.90
29007;DHT22;16104;48.642;9.008;2024-01-15T18:44:51;2.20;62.70
29007;DHT22;16104;48.642;9.008;2024-01-15T18:49:47;2.20;62.60
29007;DHT22;16104;48.642;9.008;2024-01-15T18:54:42;2.20;62.40
29007;DHT22;16104;48.642;9.008;2024-01-15T18:59:38;2.20;62.40
29007;DHT22;16104;48.642;9.008;2024-01-15T19:04:35;2.10;62.20
29007;DHT22;16104;48.642;9.008;2024-01-15T19:09:30;2.10;62.10
29007;DHT22;16104;48.642;9.008;2024-01-15T19:14:26;2.10;62.40
29007;DHT22;16104;48.642;9.008;2024-01-15T19:19:21;2.10;62.10
29007;DHT22;16104;48.642;9.008;2024-01-15T19:24:17;2.10;62.00
29007;DHT22;16104;48.642;9.008;2024-01-15T19:29:12;2.10;62.10
29007;DHT22;16104;48.642;9.008;2024-01-15T19:34:08;2.10;61.90
29007;DHT22;16104;48.642;9.008;2024-01-15T19:39:03;2.10;61.90
29007;DHT22;16104;48.642;9.008;2024-01-15T19:43:59;2.10;61.80
29007;DHT22;16104;48.642;9.008;2024-01-15T19:48:55;2.00;61.90
29007;DHT22;16104;48.642;9.008;2024-01-15T19:53:50;2.00;61.80
29007;DHT22;16104;48.642;9.008;2024-01-15T19:58:46;2.00;61.80
29007;DHT22;16104;48.642;9.008;2024-01-15T20:03:41;2.00;61.80
29007;DHT22;16104;48.642;9.008;2024-01-15T20:08:40;2.00;61.70
29007;DHT22;16104;48.642;9.008;2024-01-15T20:13:38;2.00;61.60
29007;DHT22;16104;48.642;9.008;2024-01-15T20:18:35;2.00;61.70
29007;DHT22;16104;48.642;9.008;2024-01-15T20:23:34;2.00;61.60
29007;DHT22;16104;48.642;9.008;2024-01-15T20:28:29;2.00;61.50
29007;DHT22;16104;48.642;9.008;2024-01-15T20:33:25;2.00;61.50
29007;DHT22;16104;48.642;9.008;2024-01-15T20:38:20;1.90;61.40
29007;DHT22;16104;48.642;9.008;2024-01-15T20:43:16;1.90;61.30
29007;DHT22;16104;48.642;9.008;2024-01-15T20:48:11;1.90;61.20
29007;DHT22;16104;48.642;9.008;2024-01-15T20:53:07;1.90;61.10
29007;DHT22;16104;48.642;9.008;2024-01-15T20:58:03;1.80;60.90
29007;DHT22;16104;48.642;9.008;2024-01-15T21:03:01;1.80;60.80
29007;DHT22;16104;48.642;9.008;2024-01-15T21:07:56;1.80;60.80
29007;DHT22;16104;48.642;9.008;2024-01-15T21:12:52;1.70;60.80
29007;DHT22;16104;48.642;9.008;2024-01-15T21:17:47;1.70;60.80
29007;DHT22;16104;48.642;9.008;2024-01-15T21:22:43;1.70;60.80
29007;DHT22;16104;48.642;9.008;2024-01-15T21:27:41;1.70;60.80
29007;DHT22;16104;48.642;9.008;2024-01-15T21:32:36;1.70;60.70
29007;DHT22;16104;48.642;9.008;2024-01-15T21:37:32;1.60;60.50
29007;DHT22;16104;48.642;9.008;2024-01-15T21:42:27;1.50;60.40
29007;DHT22;16104;48.642;9.008;2024-01-15T21:47:23;1.50;60.40
29007;DHT22;16104;48.642;9.008;2024-01-15T21:52:21;1.40;60.40
29007;DHT22;16104;48.642;9.008;2024-01-15T21:57:16;1.30;60.60
29007;DHT22;16104;48.642;9.008;2024-01-15T22:02:12;1.20;60.80
29007;DHT22;16104;48.642;9.008;2024-01-15T22:07:07;1.20;61.10
29007;DHT22;16104;48.642;9.008;2024-01-15T22:12:03;1.10;61.40
29007;DHT22;16104;48.642;9.008;2024-01-15T22:16:59;1.10;61.80
29007;DHT22;16104;48.642;9.008;2024-01-15T22:21:54;1.10;62.00
29007;DHT22;16104;48.642;9.008;2024-01-15T22:26:50;1.10;62.20
29007;DHT22;16104;48.642;9.008;2024-01-15T22:31:46;1.10;62.50
29007;DHT22;16104;48.642;9.008;2024-01-15T22:36:41;1.10;62.60
29007;DHT22;16104;48.642;9.008;2024-01-15T22:41:37;1.10;62.60
29007;DHT22;16104;48.642;9.008;2024-01-15T22:46:33;1.10;62.70
29007;DHT22;16104;48.642;9.008;2024-01-15T22:51:28;1.10;62.70
29007;DHT22;16104;48.642;9.008;2024-01-15T22:56:24;1.20;62.70
29007;DHT22;16104;48.642;9.008;2024-01-15T23:01:20;1.20;62.60
29007;DHT22;16104;48.642;9.008;2024-01-15T23:06:20;1.20;62.60
29007;DHT22;16104;48.642;9.008;2024-01-15T23:11:15;1.20;62.70
29007;DHT22;16104;48.642;9.008;2024-01-15T23:16:11;1.10;62.70
29007;DHT22;16104;48.642;9.008;2024-01-15T23:21:09;1.10;62.80
29007;DHT22;16104;48.642;9.008;2024-01-15T23:26:05;1.10;62.90
29007;DHT22;16104;48.642;9.008;2024-01-15T23:31:03;1.10;63.00
29007;DHT22;16104;48.642;9.008;2024-01-15T23:35:59;1.10;63.20
29007;DHT22;16104;48.642;9.008;2024-01-15T23:40:57;1.00;63.20
29007;DHT22;16104;48.642;9.008;2024-01-15T23:45:53;1.00;63.20
29007;DHT22;16104;48.642;9.008;2024-01-15T23:50:49;1.10;63.30
29007;DHT22;16104;48.642;9.008;2024-01-15T23:55:44;1.10;63.20
